sensor_id;sensor_type;location;lat;lon;timestamp;temperature;humidity
73438;DHT22;62744;56.802;23.964;2022-09-29T00:00:54;7.80;87.70
73438;DHT22;62744;56.802;23.964;2022-09-29T00:03:22;7.80;87.70
73438;DHT22;62744;56.802;23.964;2022-09-29T00:05:53;7.80;87.60
73438;DHT22;62744;56.802;23.964;2022-09-29T00:08:23;7.80;87.70
73438;DHT22;62744;56.802;23.964;2022-09-29T00:10:52;7.90;87.30
73438;DHT22;62744;56.802;23.964;2022-09-29T00:13:20;7.80;87.60
73438;DHT22;62744;56.802;23.964;2022-09-29T00:15:55;7.80;87.70
73438;DHT22;62744;56.802;23.964;2022-09-29T00:18:23;7.70;87.70
73438;DHT22;62744;56.802;23.964;2022-09-29T00:20:59;7.80;88.00
73438;DHT22;62744;56.802;23.964;2022-09-29T00:23:28;7.80;88.10
73438;DHT22;62744;56.802;23.964;2022-09-29T00:26:16;7.80;88.20
73438;DHT22;62744;56.802;23.964;2022-09-29T00:28:55;7.70;88.20
73438;DHT22;62744;56.802;23.964;2022-09-29T00:31:25;7.80;88.30
73438;DHT22;62744;56.802;23.964;2022-09-29T00:33:53;7.80;88.30
73438;DHT22;62744;56.802;23.964;2022-09-29T00:36:21;7.70;88.40
73438;DHT22;62744;56.802;23.964;2022-09-29T00:38:50;7.70;88.10
73438;DHT22;62744;56.802;23.964;2022-09-29T00:41:23;7.90;88.40
73438;DHT22;62744;56.802;23.964;2022-09-29T00:46:39;7.80;88.50
73438;DHT22;62744;56.802;23.964;2022-09-29T00:49:16;7.80;88.80
73438;DHT22;62744;56.802;23.964;2022-09-29T00:54:48;7.70;88.70
73438;DHT22;62744;56.802;23.964;2022-09-29T00:57:19;7.80;88.90
73438;DHT22;62744;56.802;23.964;2022-09-29T01:00:03;7.80;88.70
73438;DHT22;62744;56.802;23.964;2022-09-29T01:02:35;7.90;88.80
73438;DHT22;62744;56.802;23.964;2022-09-29T01:05:09;7.80;88.90
73438;DHT22;62744;56.802;23.964;2022-09-29T01:07:39;7.70;89.20
73438;DHT22;62744;56.802;23.964;2022-09-29T01:10:07;7.80;89.20
73438;DHT22;62744;56.802;23.964;2022-09-29T01:12:34;7.80;89.10
73438;DHT22;62744;56.802;23.964;2022-09-29T01:15:02;7.70;89.20
73438;DHT22;62744;56.802;23.964;2022-09-29T01:17:30;7.80;89.40
73438;DHT22;62744;56.802;23.964;2022-09-29T01:20:10;7.60;89.40
73438;DHT22;62744;56.802;23.964;2022-09-29T01:25:39;7.70;89.30
73438;DHT22;62744;56.802;23.964;2022-09-29T01:28:37;7.70;89.50
73438;DHT22;62744;56.802;23.964;2022-09-29T01:33:57;7.70;89.50
73438;DHT22;62744;56.802;23.964;2022-09-29T01:39:25;7.70;89.60
73438;DHT22;62744;56.802;23.964;2022-09-29T01:42:04;7.50;89.80
73438;DHT22;62744;56.802;23.964;2022-09-29T01:44:41;7.50;89.70
73438;DHT22;62744;56.802;23.964;2022-09-29T01:47:44;7.60;89.60
73438;DHT22;62744;56.802;23.964;2022-09-29T01:50:20;7.60;89.80
73438;DHT22;62744;56.802;23.964;2022-09-29T01:52:59;7.60;90.00
73438;DHT22;62744;56.802;23.964;2022-09-29T01:55:30;7.60;89.80
73438;DHT22;62744;56.802;23.964;2022-09-29T01:58:02;7.70;89.70
73438;DHT22;62744;56.802;23.964;2022-09-29T02:00:36;7.70;89.90
73438;DHT22;62744;56.802;23.964;2022-09-29T02:03:25;7.50;89.90
73438;DHT22;62744;56.802;23.964;2022-09-29T02:05:59;7.50;89.60
73438;DHT22;62744;56.802;23.964;2022-09-29T02:08:36;7.60;89.60
73438;DHT22;62744;56.802;23.964;2022-09-29T02:11:09;7.60;89.80
73438;DHT22;62744;56.802;23.964;2022-09-29T02:13:47;7.50;89.60
73438;DHT22;62744;56.802;23.964;2022-09-29T02:16:18;7.60;89.50
73438;DHT22;62744;56.802;23.964;2022-09-29T02:18:51;7.60;89.40
73438;DHT22;62744;56.802;23.964;2022-09-29T02:21:24;7.60;89.70
73438;DHT22;62744;56.802;23.964;2022-09-29T02:23:54;7.60;89.60
73438;DHT22;62744;56.802;23.964;2022-09-29T02:26:23;7.60;89.80
73438;DHT22;62744;56.802;23.964;2022-09-29T02:28:52;7.50;90.10
73438;DHT22;62744;56.802;23.964;2022-09-29T02:31:22;7.50;89.90
73438;DHT22;62744;56.802;23.964;2022-09-29T02:33:49;7.40;90.00
73438;DHT22;62744;56.802;23.964;2022-09-29T02:39:37;7.40;90.10
73438;DHT22;62744;56.802;23.964;2022-09-29T02:42:17;7.50;90.10
73438;DHT22;62744;56.802;23.964;2022-09-29T02:45:12;7.40;90.40
73438;DHT22;62744;56.802;23.964;2022-09-29T02:50:39;7.40;90.50
73438;DHT22;62744;56.802;23.964;2022-09-29T02:54:16;7.30;90.90
73438;DHT22;62744;56.802;23.964;2022-09-29T02:59:26;7.40;90.90
73438;DHT22;62744;56.802;23.964;2022-09-29T03:01:57;7.30;90.80
73438;DHT22;62744;56.802;23.964;2022-09-29T03:04:25;7.30;90.80
73438;DHT22;62744;56.802;23.964;2022-09-29T03:06:53;7.40;90.50
73438;DHT22;62744;56.802;23.964;2022-09-29T03:09:21;7.40;90.30
73438;DHT22;62744;56.802;23.964;2022-09-29T03:11:48;7.40;90.50
73438;DHT22;62744;56.802;23.964;2022-09-29T03:14:16;7.40;90.30
73438;DHT22;62744;56.802;23.964;2022-09-29T03:16:43;7.40;90.60
73438;DHT22;62744;56.802;23.964;2022-09-29T03:19:11;7.30;90.50
73438;DHT22;62744;56.802;23.964;2022-09-29T03:21:38;7.50;90.60
73438;DHT22;62744;56.802;23.964;2022-09-29T03:24:06;7.50;90.60
73438;DHT22;62744;56.802;23.964;2022-09-29T03:26:33;7.40;90.50
73438;DHT22;62744;56.802;23.964;2022-09-29T03:29:00;7.40;90.30
73438;DHT22;62744;56.802;23.964;2022-09-29T03:31:28;7.40;90.40
73438;DHT22;62744;56.802;23.964;2022-09-29T03:33:55;7.40;90.30
73438;DHT22;62744;56.802;23.964;2022-09-29T03:36:23;7.30;90.60
73438;DHT22;62744;56.802;23.964;2022-09-29T03:38:50;7.40;90.40
73438;DHT22;62744;56.802;23.964;2022-09-29T03:41:17;7.40;90.70
73438;DHT22;62744;56.802;23.964;2022-09-29T03:43:44;7.40;90.80
73438;DHT22;62744;56.802;23.964;2022-09-29T03:46:11;7.40;90.70
73438;DHT22;62744;56.802;23.964;2022-09-29T03:48:39;7.30;90.80
73438;DHT22;62744;56.802;23.964;2022-09-29T03:51:07;7.40;91.10
73438;DHT22;62744;56.802;23.964;2022-09-29T03:53:34;7.30;90.90
73438;DHT22;62744;56.802;23.964;2022-09-29T03:56:02;7.40;91.20
73438;DHT22;62744;56.802;23.964;2022-09-29T03:58:30;7.30;91.20
73438;DHT22;62744;56.802;23.964;2022-09-29T04:00:58;7.40;91.30
73438;DHT22;62744;56.802;23.964;2022-09-29T04:03:25;7.30;91.30
73438;DHT22;62744;56.802;23.964;2022-09-29T04:05:53;7.40;91.20
73438;DHT22;62744;56.802;23.964;2022-09-29T04:08:20;7.30;91.10
73438;DHT22;62744;56.802;23.964;2022-09-29T04:10:48;7.30;91.00
73438;DHT22;62744;56.802;23.964;2022-09-29T04:13:15;7.20;91.20
73438;DHT22;62744;56.802;23.964;2022-09-29T04:15:47;7.30;91.10
73438;DHT22;62744;56.802;23.964;2022-09-29T04:18:14;7.20;91.70
73438;DHT22;62744;56.802;23.964;2022-09-29T04:20:42;7.30;91.30
73438;DHT22;62744;56.802;23.964;2022-09-29T04:23:09;7.30;91.50
73438;DHT22;62744;56.802;23.964;2022-09-29T04:25:37;7.30;91.60
73438;DHT22;62744;56.802;23.964;2022-09-29T04:28:04;7.30;91.60
73438;DHT22;62744;56.802;23.964;2022-09-29T04:30:31;7.30;91.80
73438;DHT22;62744;56.802;23.964;2022-09-29T04:32:59;7.30;91.80
73438;DHT22;62744;56.802;23.964;2022-09-29T04:35:26;7.20;91.90
73438;DHT22;62744;56.802;23.964;2022-09-29T04:37:55;7.20;92.00
73438;DHT22;62744;56.802;23.964;2022-09-29T04:40:24;7.20;92.10
73438;DHT22;62744;56.802;23.964;2022-09-29T04:42:52;7.30;92.10
73438;DHT22;62744;56.802;23.964;2022-09-29T04:45:19;7.30;92.20
73438;DHT22;62744;56.802;23.964;2022-09-29T04:47:46;7.30;92.20
73438;DHT22;62744;56.802;23.964;2022-09-29T04:50:14;7.10;92.40
73438;DHT22;62744;56.802;23.964;2022-09-29T04:52:42;7.50;95.00
73438;DHT22;62744;56.802;23.964;2022-09-29T04:55:11;7.80;92.00
73438;DHT22;62744;56.802;23.964;2022-09-29T04:57:41;7.50;91.40
73438;DHT22;62744;56.802;23.964;2022-09-29T05:00:10;7.50;91.70
73438;DHT22;62744;56.802;23.964;2022-09-29T05:02:38;7.30;91.90
73438;DHT22;62744;56.802;23.964;2022-09-29T05:05:06;7.40;92.10
73438;DHT22;62744;56.802;23.964;2022-09-29T05:07:34;7.30;92.10
73438;DHT22;62744;56.802;23.964;2022-09-29T05:10:03;7.20;92.30
73438;DHT22;62744;56.802;23.964;2022-09-29T05:12:31;7.00;92.80
73438;DHT22;62744;56.802;23.964;2022-09-29T05:14:58;7.20;92.80
73438;DHT22;62744;56.802;23.964;2022-09-29T05:17:25;7.20;92.80
73438;DHT22;62744;56.802;23.964;2022-09-29T05:19:53;7.20;92.80
73438;DHT22;62744;56.802;23.964;2022-09-29T05:22:20;7.20;93.00
73438;DHT22;62744;56.802;23.964;2022-09-29T05:24:51;7.30;93.00
73438;DHT22;62744;56.802;23.964;2022-09-29T05:27:19;7.20;93.30
73438;DHT22;62744;56.802;23.964;2022-09-29T05:29:48;7.20;93.80
73438;DHT22;62744;56.802;23.964;2022-09-29T05:32:16;7.10;93.60
73438;DHT22;62744;56.802;23.964;2022-09-29T05:34:43;7.10;93.40
73438;DHT22;62744;56.802;23.964;2022-09-29T05:37:11;7.10;93.60
73438;DHT22;62744;56.802;23.964;2022-09-29T05:39:39;7.20;93.40
73438;DHT22;62744;56.802;23.964;2022-09-29T05:42:10;7.10;93.50
73438;DHT22;62744;56.802;23.964;2022-09-29T05:44:37;7.10;93.30
73438;DHT22;62744;56.802;23.964;2022-09-29T05:47:05;7.10;93.90
73438;DHT22;62744;56.802;23.964;2022-09-29T05:49:32;7.30;93.50
73438;DHT22;62744;56.802;23.964;2022-09-29T05:52:02;7.30;93.80
73438;DHT22;62744;56.802;23.964;2022-09-29T05:54:30;7.30;93.50
73438;DHT22;62744;56.802;23.964;2022-09-29T05:56:57;7.40;93.30
73438;DHT22;62744;56.802;23.964;2022-09-29T05:59:25;7.40;93.40
73438;DHT22;62744;56.802;23.964;2022-09-29T06:01:52;7.40;93.60
73438;DHT22;62744;56.802;23.964;2022-09-29T06:04:20;7.40;93.30
73438;DHT22;62744;56.802;23.964;2022-09-29T06:06:47;7.50;93.30
73438;DHT22;62744;56.802;23.964;2022-09-29T06:09:15;7.50;93.60
73438;DHT22;62744;56.802;23.964;2022-09-29T06:11:42;7.60;93.10
73438;DHT22;62744;56.802;23.964;2022-09-29T06:14:10;7.60;92.90
73438;DHT22;62744;56.802;23.964;2022-09-29T06:16:37;7.80;92.80
73438;DHT22;62744;56.802;23.964;2022-09-29T06:19:04;7.80;92.80
73438;DHT22;62744;56.802;23.964;2022-09-29T06:21:32;7.80;92.80
73438;DHT22;62744;56.802;23.964;2022-09-29T06:24:01;7.80;93.10
73438;DHT22;62744;56.802;23.964;2022-09-29T06:26:29;7.80;92.60
73438;DHT22;62744;56.802;23.964;2022-09-29T06:28:57;7.80;92.80
73438;DHT22;62744;56.802;23.964;2022-09-29T06:31:26;7.80;93.20
73438;DHT22;62744;56.802;23.964;2022-09-29T06:34:00;7.80;93.00
73438;DHT22;62744;56.802;23.964;2022-09-29T06:36:40;7.80;93.50
73438;DHT22;62744;56.802;23.964;2022-09-29T06:39:26;7.80;93.10
73438;DHT22;62744;56.802;23.964;2022-09-29T06:41:54;7.80;92.80
73438;DHT22;62744;56.802;23.964;2022-09-29T06:44:24;7.80;93.20
73438;DHT22;62744;56.802;23.964;2022-09-29T06:46:53;7.90;92.80
73438;DHT22;62744;56.802;23.964;2022-09-29T06:49:21;7.80;92.80
73438;DHT22;62744;56.802;23.964;2022-09-29T06:51:49;7.70;93.30
73438;DHT22;62744;56.802;23.964;2022-09-29T06:54:19;7.80;93.00
73438;DHT22;62744;56.802;23.964;2022-09-29T06:56:51;7.80;92.90
73438;DHT22;62744;56.802;23.964;2022-09-29T06:59:18;7.80;93.60
73438;DHT22;62744;56.802;23.964;2022-09-29T07:01:46;7.90;93.60
73438;DHT22;62744;56.802;23.964;2022-09-29T07:04:19;7.90;93.50
73438;DHT22;62744;56.802;23.964;2022-09-29T07:06:47;8.00;93.60
73438;DHT22;62744;56.802;23.964;2022-09-29T07:09:16;8.10;93.40
73438;DHT22;62744;56.802;23.964;2022-09-29T07:11:49;8.10;93.10
73438;DHT22;62744;56.802;23.964;2022-09-29T07:14:18;8.10;93.20
73438;DHT22;62744;56.802;23.964;2022-09-29T07:16:46;7.90;92.50
73438;DHT22;62744;56.802;23.964;2022-09-29T07:19:15;7.80;93.60
73438;DHT22;62744;56.802;23.964;2022-09-29T07:21:45;7.80;94.10
73438;DHT22;62744;56.802;23.964;2022-09-29T07:24:13;7.90;94.30
73438;DHT22;62744;56.802;23.964;2022-09-29T07:26:41;7.90;94.20
73438;DHT22;62744;56.802;23.964;2022-09-29T07:29:08;7.80;94.20
73438;DHT22;62744;56.802;23.964;2022-09-29T07:31:41;7.70;94.20
73438;DHT22;62744;56.802;23.964;2022-09-29T07:34:19;8.00;94.50
73438;DHT22;62744;56.802;23.964;2022-09-29T07:36:47;7.90;94.80
73438;DHT22;62744;56.802;23.964;2022-09-29T07:39:15;7.90;94.40
73438;DHT22;62744;56.802;23.964;2022-09-29T07:41:43;7.90;94.00
73438;DHT22;62744;56.802;23.964;2022-09-29T07:44:10;8.00;94.10
73438;DHT22;62744;56.802;23.964;2022-09-29T07:46:37;7.80;94.10
73438;DHT22;62744;56.802;23.964;2022-09-29T07:49:05;7.80;94.90
73438;DHT22;62744;56.802;23.964;2022-09-29T07:51:32;7.70;95.10
73438;DHT22;62744;56.802;23.964;2022-09-29T07:54:02;7.60;94.90
73438;DHT22;62744;56.802;23.964;2022-09-29T07:56:30;7.70;95.60
73438;DHT22;62744;56.802;23.964;2022-09-29T07:58:59;7.80;95.40
73438;DHT22;62744;56.802;23.964;2022-09-29T08:01:28;7.80;95.20
73438;DHT22;62744;56.802;23.964;2022-09-29T08:03:56;7.90;94.80
73438;DHT22;62744;56.802;23.964;2022-09-29T08:06:25;7.90;95.30
73438;DHT22;62744;56.802;23.964;2022-09-29T08:08:53;8.00;95.10
73438;DHT22;62744;56.802;23.964;2022-09-29T08:11:31;8.00;95.00
73438;DHT22;62744;56.802;23.964;2022-09-29T08:14:00;8.00;94.90
73438;DHT22;62744;56.802;23.964;2022-09-29T08:16:28;8.10;94.70
73438;DHT22;62744;56.802;23.964;2022-09-29T08:18:56;8.20;94.90
73438;DHT22;62744;56.802;23.964;2022-09-29T08:21:24;8.20;94.50
73438;DHT22;62744;56.802;23.964;2022-09-29T08:23:51;8.20;93.80
73438;DHT22;62744;56.802;23.964;2022-09-29T08:26:21;8.20;94.30
73438;DHT22;62744;56.802;23.964;2022-09-29T08:29:03;8.20;94.30
73438;DHT22;62744;56.802;23.964;2022-09-29T08:31:35;8.20;93.80
73438;DHT22;62744;56.802;23.964;2022-09-29T08:34:05;8.40;94.40
73438;DHT22;62744;56.802;23.964;2022-09-29T08:36:34;8.60;94.30
73438;DHT22;62744;56.802;23.964;2022-09-29T08:39:03;8.50;94.00
73438;DHT22;62744;56.802;23.964;2022-09-29T08:42:00;8.60;93.80
73438;DHT22;62744;56.802;23.964;2022-09-29T08:44:57;8.80;94.00
73438;DHT22;62744;56.802;23.964;2022-09-29T08:47:45;8.90;93.60
73438;DHT22;62744;56.802;23.964;2022-09-29T08:50:33;8.70;93.00
73438;DHT22;62744;56.802;23.964;2022-09-29T08:53:07;8.60;93.60
73438;DHT22;62744;56.802;23.964;2022-09-29T08:55:57;8.70;93.70
73438;DHT22;62744;56.802;23.964;2022-09-29T08:58:26;8.70;93.70
73438;DHT22;62744;56.802;23.964;2022-09-29T09:20:44;8.60;94.40
73438;DHT22;62744;56.802;23.964;2022-09-29T09:23:23;8.60;94.30
73438;DHT22;62744;56.802;23.964;2022-09-29T09:25:59;8.70;94.20
73438;DHT22;62744;56.802;23.964;2022-09-29T09:28:34;8.80;94.20
73438;DHT22;62744;56.802;23.964;2022-09-29T09:31:14;8.80;94.10
73438;DHT22;62744;56.802;23.964;2022-09-29T09:33:46;8.80;93.70
73438;DHT22;62744;56.802;23.964;2022-09-29T09:36:50;8.90;94.10
73438;DHT22;62744;56.802;23.964;2022-09-29T09:42:16;9.10;94.00
73438;DHT22;62744;56.802;23.964;2022-09-29T09:44:54;9.10;94.20
73438;DHT22;62744;56.802;23.964;2022-09-29T09:47:28;9.20;93.90
73438;DHT22;62744;56.802;23.964;2022-09-29T09:50:18;9.30;93.30
73438;DHT22;62744;56.802;23.964;2022-09-29T09:53:02;9.30;93.90
73438;DHT22;62744;56.802;23.964;2022-09-29T09:55:30;9.50;94.10
73438;DHT22;62744;56.802;23.964;2022-09-29T10:00:56;9.70;93.90
73438;DHT22;62744;56.802;23.964;2022-09-29T10:03:26;10.00;92.10
73438;DHT22;62744;56.802;23.964;2022-09-29T10:05:54;10.00;91.70
73438;DHT22;62744;56.802;23.964;2022-09-29T10:08:29;9.90;91.30
73438;DHT22;62744;56.802;23.964;2022-09-29T10:10:58;9.80;91.80
73438;DHT22;62744;56.802;23.964;2022-09-29T10:13:28;9.80;92.40
73438;DHT22;62744;56.802;23.964;2022-09-29T10:16:31;9.60;92.30
73438;DHT22;62744;56.802;23.964;2022-09-29T10:19:00;9.70;92.60
73438;DHT22;62744;56.802;23.964;2022-09-29T10:23:58;9.70;92.60
73438;DHT22;62744;56.802;23.964;2022-09-29T10:29:27;9.80;92.30
73438;DHT22;62744;56.802;23.964;2022-09-29T10:32:09;9.80;91.60
73438;DHT22;62744;56.802;23.964;2022-09-29T10:35:00;9.90;91.20
73438;DHT22;62744;56.802;23.964;2022-09-29T10:37:41;10.10;91.60
73438;DHT22;62744;56.802;23.964;2022-09-29T10:42:44;10.50;90.60
73438;DHT22;62744;56.802;23.964;2022-09-29T10:48:05;10.70;88.90
73438;DHT22;62744;56.802;23.964;2022-09-29T10:50:59;10.70;89.30
73438;DHT22;62744;56.802;23.964;2022-09-29T10:53:36;10.70;88.90
73438;DHT22;62744;56.802;23.964;2022-09-29T10:56:19;10.80;88.40
73438;DHT22;62744;56.802;23.964;2022-09-29T10:59:02;10.70;88.90
73438;DHT22;62744;56.802;23.964;2022-09-29T11:01:34;10.80;89.00
73438;DHT22;62744;56.802;23.964;2022-09-29T11:04:35;11.00;88.70
73438;DHT22;62744;56.802;23.964;2022-09-29T11:07:08;10.80;88.90
73438;DHT22;62744;56.802;23.964;2022-09-29T11:09:44;10.80;88.70
73438;DHT22;62744;56.802;23.964;2022-09-29T11:12:33;10.70;89.10
73438;DHT22;62744;56.802;23.964;2022-09-29T11:15:01;10.60;89.20
73438;DHT22;62744;56.802;23.964;2022-09-29T11:17:35;10.60;89.70
73438;DHT22;62744;56.802;23.964;2022-09-29T11:20:05;10.60;89.70
73438;DHT22;62744;56.802;23.964;2022-09-29T11:25:56;10.60;89.50
73438;DHT22;62744;56.802;23.964;2022-09-29T11:37:00;10.70;89.20
73438;DHT22;62744;56.802;23.964;2022-09-29T11:52:53;10.70;89.00
73438;DHT22;62744;56.802;23.964;2022-09-29T11:58:56;10.70;88.50
73438;DHT22;62744;56.802;23.964;2022-09-29T12:01:54;10.60;88.20
73438;DHT22;62744;56.802;23.964;2022-09-29T12:13:51;10.60;89.80
73438;DHT22;62744;56.802;23.964;2022-09-29T12:16:05;10.50;89.40
73438;DHT22;62744;56.802;23.964;2022-09-29T12:18:49;10.50;89.30
73438;DHT22;62744;56.802;23.964;2022-09-29T12:21:33;10.50;89.80
73438;DHT22;62744;56.802;23.964;2022-09-29T12:24:08;10.40;89.70
73438;DHT22;62744;56.802;23.964;2022-09-29T12:26:38;10.50;89.70
73438;DHT22;62744;56.802;23.964;2022-09-29T12:29:52;10.50;89.60
73438;DHT22;62744;56.802;23.964;2022-09-29T12:31:55;10.60;89.80
73438;DHT22;62744;56.802;23.964;2022-09-29T12:34:31;10.70;89.30
73438;DHT22;62744;56.802;23.964;2022-09-29T12:40:16;10.80;87.80
73438;DHT22;62744;56.802;23.964;2022-09-29T12:43:04;10.80;88.20
73438;DHT22;62744;56.802;23.964;2022-09-29T12:48:23;11.00;88.20
73438;DHT22;62744;56.802;23.964;2022-09-29T12:54:02;11.10;88.90
73438;DHT22;62744;56.802;23.964;2022-09-29T12:56:47;11.00;87.80
73438;DHT22;62744;56.802;23.964;2022-09-29T13:10:59;11.10;89.00
73438;DHT22;62744;56.802;23.964;2022-09-29T13:19:11;11.00;87.90
73438;DHT22;62744;56.802;23.964;2022-09-29T13:25:20;11.00;87.90
73438;DHT22;62744;56.802;23.964;2022-09-29T13:27:50;11.00;87.10
73438;DHT22;62744;56.802;23.964;2022-09-29T13:30:31;11.20;87.00
73438;DHT22;62744;56.802;23.964;2022-09-29T13:33:12;11.20;86.80
73438;DHT22;62744;56.802;23.964;2022-09-29T13:35:46;11.40;86.60
73438;DHT22;62744;56.802;23.964;2022-09-29T13:38:18;11.40;86.40
73438;DHT22;62744;56.802;23.964;2022-09-29T13:41:09;11.40;85.70
73438;DHT22;62744;56.802;23.964;2022-09-29T13:49:10;11.60;85.30
73438;DHT22;62744;56.802;23.964;2022-09-29T13:54:35;11.50;86.30
73438;DHT22;62744;56.802;23.964;2022-09-29T13:59:43;11.50;86.90
73438;DHT22;62744;56.802;23.964;2022-09-29T14:02:36;11.50;86.90
73438;DHT22;62744;56.802;23.964;2022-09-29T14:10:41;11.60;87.20
73438;DHT22;62744;56.802;23.964;2022-09-29T14:18:44;11.70;86.30
73438;DHT22;62744;56.802;23.964;2022-09-29T14:30:01;11.90;85.90
73438;DHT22;62744;56.802;23.964;2022-09-29T14:32:47;11.80;85.70
73438;DHT22;62744;56.802;23.964;2022-09-29T14:35:36;11.90;86.10
73438;DHT22;62744;56.802;23.964;2022-09-29T14:38:14;11.80;86.50
73438;DHT22;62744;56.802;23.964;2022-09-29T14:40:58;11.90;86.20
73438;DHT22;62744;56.802;23.964;2022-09-29T14:43:45;11.80;86.30
73438;DHT22;62744;56.802;23.964;2022-09-29T14:46:49;11.80;86.30
73438;DHT22;62744;56.802;23.964;2022-09-29T14:55:15;11.80;86.00
73438;DHT22;62744;56.802;23.964;2022-09-29T15:01:06;11.40;86.90
73438;DHT22;62744;56.802;23.964;2022-09-29T15:03:47;11.30;87.40
73438;DHT22;62744;56.802;23.964;2022-09-29T15:06:18;11.10;87.40
73438;DHT22;62744;56.802;23.964;2022-09-29T15:08:59;11.00;88.10
73438;DHT22;62744;56.802;23.964;2022-09-29T15:11:28;11.50;90.00
73438;DHT22;62744;56.802;23.964;2022-09-29T15:13:58;11.70;87.40
73438;DHT22;62744;56.802;23.964;2022-09-29T15:27:39;11.10;88.50
73438;DHT22;62744;56.802;23.964;2022-09-29T15:30:13;11.00;88.90
73438;DHT22;62744;56.802;23.964;2022-09-29T15:32:44;10.90;89.00
73438;DHT22;62744;56.802;23.964;2022-09-29T15:35:15;10.70;89.60
73438;DHT22;62744;56.802;23.964;2022-09-29T15:37:58;10.80;89.70
73438;DHT22;62744;56.802;23.964;2022-09-29T15:40:36;10.70;89.80
73438;DHT22;62744;56.802;23.964;2022-09-29T15:43:19;10.50;89.90
73438;DHT22;62744;56.802;23.964;2022-09-29T15:45:57;10.40;90.30
73438;DHT22;62744;56.802;23.964;2022-09-29T15:48:26;10.40;90.50
73438;DHT22;62744;56.802;23.964;2022-09-29T15:50:55;10.40;90.80
73438;DHT22;62744;56.802;23.964;2022-09-29T15:53:25;10.30;91.40
73438;DHT22;62744;56.802;23.964;2022-09-29T15:55:54;10.30;91.60
73438;DHT22;62744;56.802;23.964;2022-09-29T16:01:08;10.20;91.50
73438;DHT22;62744;56.802;23.964;2022-09-29T16:03:55;10.30;92.00
73438;DHT22;62744;56.802;23.964;2022-09-29T16:06:33;10.20;92.20
73438;DHT22;62744;56.802;23.964;2022-09-29T16:09:18;10.20;92.40
73438;DHT22;62744;56.802;23.964;2022-09-29T16:11:46;10.10;92.80
73438;DHT22;62744;56.802;23.964;2022-09-29T16:14:21;10.10;92.80
73438;DHT22;62744;56.802;23.964;2022-09-29T16:16:51;10.20;92.60
73438;DHT22;62744;56.802;23.964;2022-09-29T16:19:29;10.00;92.50
73438;DHT22;62744;56.802;23.964;2022-09-29T16:22:00;9.90;92.70
73438;DHT22;62744;56.802;23.964;2022-09-29T16:24:33;9.80;93.20
73438;DHT22;62744;56.802;23.964;2022-09-29T16:27:02;9.70;93.50
73438;DHT22;62744;56.802;23.964;2022-09-29T16:29:34;9.60;93.80
73438;DHT22;62744;56.802;23.964;2022-09-29T16:38:24;9.20;93.40
73438;DHT22;62744;56.802;23.964;2022-09-29T16:40:53;9.10;93.50
73438;DHT22;62744;56.802;23.964;2022-09-29T16:43:29;9.00;92.90
73438;DHT22;62744;56.802;23.964;2022-09-29T16:46:00;8.90;93.30
73438;DHT22;62744;56.802;23.964;2022-09-29T16:48:30;8.70;93.20
73438;DHT22;62744;56.802;23.964;2022-09-29T16:51:00;8.60;93.60
73438;DHT22;62744;56.802;23.964;2022-09-29T16:53:38;8.40;93.50
73438;DHT22;62744;56.802;23.964;2022-09-29T16:56:15;8.30;93.40
73438;DHT22;62744;56.802;23.964;2022-09-29T17:01:39;8.10;94.10
73438;DHT22;62744;56.802;23.964;2022-09-29T17:04:08;8.10;94.20
73438;DHT22;62744;56.802;23.964;2022-09-29T17:06:43;8.10;94.00
73438;DHT22;62744;56.802;23.964;2022-09-29T17:09:19;7.80;93.90
73438;DHT22;62744;56.802;23.964;2022-09-29T17:11:49;7.80;94.00
73438;DHT22;62744;56.802;23.964;2022-09-29T17:14:16;7.80;94.30
73438;DHT22;62744;56.802;23.964;2022-09-29T17:16:49;7.80;94.60
73438;DHT22;62744;56.802;23.964;2022-09-29T17:19:19;7.80;94.60
73438;DHT22;62744;56.802;23.964;2022-09-29T17:21:49;7.70;94.70
73438;DHT22;62744;56.802;23.964;2022-09-29T17:24:20;7.70;94.50
73438;DHT22;62744;56.802;23.964;2022-09-29T17:26:48;7.70;94.30
73438;DHT22;62744;56.802;23.964;2022-09-29T17:29:34;7.50;94.50
73438;DHT22;62744;56.802;23.964;2022-09-29T17:32:10;7.50;94.70
73438;DHT22;62744;56.802;23.964;2022-09-29T17:34:39;7.50;94.00
73438;DHT22;62744;56.802;23.964;2022-09-29T17:37:07;7.20;93.80
73438;DHT22;62744;56.802;23.964;2022-09-29T17:39:36;7.30;93.30
73438;DHT22;62744;56.802;23.964;2022-09-29T17:42:04;7.20;93.10
73438;DHT22;62744;56.802;23.964;2022-09-29T17:44:31;7.10;92.50
73438;DHT22;62744;56.802;23.964;2022-09-29T17:46:59;7.00;92.90
73438;DHT22;62744;56.802;23.964;2022-09-29T17:49:46;7.00;93.30
73438;DHT22;62744;56.802;23.964;2022-09-29T17:52:16;6.90;94.00
73438;DHT22;62744;56.802;23.964;2022-09-29T17:54:46;6.90;94.50
73438;DHT22;62744;56.802;23.964;2022-09-29T17:57:26;6.90;94.60
73438;DHT22;62744;56.802;23.964;2022-09-29T17:59:55;7.00;94.80
73438;DHT22;62744;56.802;23.964;2022-09-29T18:02:26;6.80;94.80
73438;DHT22;62744;56.802;23.964;2022-09-29T18:04:53;6.90;94.70
73438;DHT22;62744;56.802;23.964;2022-09-29T18:07:21;6.90;94.70
73438;DHT22;62744;56.802;23.964;2022-09-29T18:09:48;6.90;94.50
73438;DHT22;62744;56.802;23.964;2022-09-29T18:12:16;7.00;94.70
73438;DHT22;62744;56.802;23.964;2022-09-29T18:14:44;6.90;94.30
73438;DHT22;62744;56.802;23.964;2022-09-29T18:17:11;6.80;94.70
73438;DHT22;62744;56.802;23.964;2022-09-29T18:19:39;6.80;94.90
73438;DHT22;62744;56.802;23.964;2022-09-29T18:22:07;6.90;95.30
73438;DHT22;62744;56.802;23.964;2022-09-29T18:24:34;6.90;95.20
73438;DHT22;62744;56.802;23.964;2022-09-29T18:27:02;7.00;95.10
73438;DHT22;62744;56.802;23.964;2022-09-29T18:29:30;6.90;95.20
73438;DHT22;62744;56.802;23.964;2022-09-29T18:31:58;7.00;95.40
73438;DHT22;62744;56.802;23.964;2022-09-29T18:34:26;7.10;95.60
73438;DHT22;62744;56.802;23.964;2022-09-29T18:36:57;7.20;95.50
73438;DHT22;62744;56.802;23.964;2022-09-29T18:39:24;7.20;95.50
73438;DHT22;62744;56.802;23.964;2022-09-29T18:41:51;7.20;95.60
73438;DHT22;62744;56.802;23.964;2022-09-29T18:44:21;7.30;95.70
73438;DHT22;62744;56.802;23.964;2022-09-29T18:46:50;7.40;95.80
73438;DHT22;62744;56.802;23.964;2022-09-29T18:49:18;7.40;95.80
73438;DHT22;62744;56.802;23.964;2022-09-29T18:51:46;7.40;95.90
73438;DHT22;62744;56.802;23.964;2022-09-29T18:54:13;7.40;95.90
73438;DHT22;62744;56.802;23.964;2022-09-29T18:56:42;7.40;95.70
73438;DHT22;62744;56.802;23.964;2022-09-29T18:59:11;7.60;95.60
73438;DHT22;62744;56.802;23.964;2022-09-29T19:01:39;7.50;95.60
73438;DHT22;62744;56.802;23.964;2022-09-29T19:04:08;7.60;95.60
73438;DHT22;62744;56.802;23.964;2022-09-29T19:06:36;7.60;95.70
73438;DHT22;62744;56.802;23.964;2022-09-29T19:09:03;7.60;95.70
73438;DHT22;62744;56.802;23.964;2022-09-29T19:11:31;7.70;96.00